Terminal Aerodrome Forecast
Issued by NWS

Home | Current Version | Previous Version | Text Only | Print | Product List | Glossary On
Versions: 1 2 3 4 5 6 7 8 9 10 11 12 13 14 15 16 17 18 19 20 21 22 23 24 25 26 27 28 29 30 31
000
FTUS46 KPDT 270500
TAFYKM
TAF
KYKM 270531Z 2706/2806 27005KT 1/2SM FG VV002
     FM271000 26005KT 1/4SM FG VV002
     FM271800 VRB04KT 2SM BR OVC005
     FM272100 VRB04KT 5SM BR OVC009
     FM280300 28004KT 4SM BR SCT007 OVC015=

USA.gov is the U.S. government's official web portal to all federal, state and local government web resources and services.